createdAt,value
2018-11-10T00:01:49.729Z,10.70
2018-11-10T00:05:54.060Z,10.60
2018-11-10T00:09:58.270Z,10.60
2018-11-10T00:14:02.503Z,10.60
2018-11-10T00:18:07.044Z,10.60
2018-11-10T00:22:11.352Z,10.60
2018-11-10T00:26:16.112Z,10.60
2018-11-10T00:30:20.531Z,10.60
2018-11-10T00:34:24.769Z,10.60
2018-11-10T00:38:29.338Z,10.60
2018-11-10T00:42:33.756Z,10.50
2018-11-10T00:46:37.957Z,10.50
2018-11-10T00:50:42.318Z,10.50
2018-11-10T00:54:46.541Z,10.40
2018-11-10T00:58:51.058Z,10.40
2018-11-10T01:02:55.273Z,10.40
2018-11-10T01:06:59.832Z,10.40
2018-11-10T01:11:04.245Z,10.30
2018-11-10T01:15:10.481Z,10.30
2018-11-10T01:19:14.661Z,10.30
2018-11-10T01:23:19.043Z,10.30
2018-11-10T01:27:23.286Z,10.30
2018-11-10T01:31:27.512Z,10.20
2018-11-10T01:35:31.987Z,10.20
2018-11-10T01:39:36.181Z,10.20
2018-11-10T01:43:40.464Z,10.30
2018-11-10T01:47:45.113Z,10.30
2018-11-10T01:51:49.307Z,10.20
2018-11-10T01:55:53.548Z,10.10
2018-11-10T01:59:57.817Z,10.10
2018-11-10T02:04:02.081Z,10.10
2018-11-10T02:08:06.817Z,10.00
2018-11-10T02:12:11.015Z,10.10
2018-11-10T02:16:15.402Z,10.00
2018-11-10T02:20:19.616Z,10.10
2018-11-10T02:24:23.884Z,10.10
2018-11-10T02:28:28.188Z,10.10
2018-11-10T02:32:32.413Z,10.10
2018-11-10T02:36:36.793Z,10.10
2018-11-10T02:40:40.977Z,10.00
2018-11-10T02:44:45.596Z,10.00
2018-11-10T02:48:50.278Z,9.90
2018-11-10T02:52:54.464Z,9.90
2018-11-10T02:56:58.642Z,10.00
2018-11-10T03:01:03.129Z,10.00
2018-11-10T03:05:08.140Z,10.10
2018-11-10T03:09:12.611Z,10.00
2018-11-10T03:13:16.792Z,10.00
2018-11-10T03:17:20.987Z,9.90
2018-11-10T03:21:25.284Z,9.90
2018-11-10T03:25:29.464Z,9.90
2018-11-10T03:29:33.658Z,9.90
2018-11-10T03:33:37.952Z,9.80
2018-11-10T03:37:42.388Z,9.80
2018-11-10T03:41:46.738Z,9.80
2018-11-10T03:45:50.936Z,9.80
2018-11-10T03:49:55.117Z,9.80
2018-11-10T03:53:59.412Z,9.80
2018-11-10T03:58:03.594Z,9.80
2018-11-10T04:02:07.956Z,9.80
2018-11-10T04:06:12.185Z,9.70
2018-11-10T04:10:16.420Z,9.70
2018-11-10T04:14:20.814Z,9.80
2018-11-10T04:18:25.059Z,9.80
2018-11-10T04:22:33.802Z,9.80
2018-11-10T04:26:38.076Z,9.70
2018-11-10T04:30:42.289Z,9.70
2018-11-10T04:34:46.556Z,9.80
2018-11-10T04:38:50.747Z,9.70
2018-11-10T04:42:54.971Z,9.80
2018-11-10T04:46:59.239Z,9.90
2018-11-10T04:51:03.444Z,9.90
2018-11-10T04:55:08.391Z,9.90
2018-11-10T04:59:12.717Z,9.90
2018-11-10T05:03:16.950Z,9.80
2018-11-10T05:07:21.287Z,9.80
2018-11-10T05:11:25.568Z,9.70
2018-11-10T05:15:29.810Z,9.80
2018-11-10T05:19:34.052Z,9.80
2018-11-10T05:23:38.274Z,9.80
2018-11-10T05:27:42.448Z,9.90
2018-11-10T05:31:46.845Z,9.90
2018-11-10T05:35:51.108Z,9.80
2018-11-10T05:39:55.809Z,9.90
2018-11-10T05:44:00.075Z,9.80
2018-11-10T05:48:04.301Z,9.80
2018-11-10T05:52:08.708Z,9.80
2018-11-10T05:56:12.914Z,9.80
2018-11-10T06:00:17.382Z,9.80
2018-11-10T06:04:21.753Z,9.80
2018-11-10T06:08:26.188Z,9.80
2018-11-10T06:12:30.579Z,9.80
2018-11-10T06:16:34.939Z,9.80
2018-11-10T06:20:39.120Z,9.90
2018-11-10T06:24:43.321Z,9.90
2018-11-10T06:28:47.737Z,10.00
2018-11-10T06:32:52.038Z,10.10
2018-11-10T06:36:57.423Z,10.10
2018-11-10T06:41:02.040Z,10.20
2018-11-10T06:45:06.649Z,10.20
2018-11-10T06:49:11.256Z,10.20
2018-11-10T06:53:15.473Z,10.20
2018-11-10T06:57:19.697Z,10.20
2018-11-10T07:01:24.196Z,10.20
2018-11-10T07:05:28.394Z,10.10
2018-11-10T07:09:33.202Z,10.10
2018-11-10T07:13:37.388Z,10.10
2018-11-10T07:17:41.643Z,10.10
2018-11-10T07:21:45.894Z,10.10
2018-11-10T07:25:50.107Z,10.20
2018-11-10T07:29:54.437Z,10.10
2018-11-10T07:33:59.633Z,10.10
2018-11-10T07:38:03.836Z,10.10
2018-11-10T07:42:08.140Z,10.20
2018-11-10T07:46:12.437Z,10.40
2018-11-10T07:50:16.663Z,10.40
2018-11-10T07:54:20.915Z,10.40
2018-11-10T07:58:25.179Z,10.50
2018-11-10T08:02:29.546Z,10.50
2018-11-10T08:06:33.738Z,10.70
2018-11-10T08:10:37.972Z,10.80
2018-11-10T08:14:42.313Z,11.00
2018-11-10T08:18:47.075Z,11.20
2018-11-10T08:22:51.491Z,11.30
2018-11-10T08:26:55.813Z,11.50
2018-11-10T08:31:00.017Z,11.60
2018-11-10T08:35:04.545Z,11.70
2018-11-10T08:39:09.858Z,11.70
2018-11-10T08:43:14.047Z,11.90
2018-11-10T08:47:18.347Z,11.80
2018-11-10T08:51:22.582Z,11.80
2018-11-10T08:55:27.013Z,11.60
2018-11-10T08:59:31.231Z,11.50
2018-11-10T09:03:35.454Z,11.60
2018-11-10T09:07:40.348Z,11.80
2018-11-10T09:11:44.543Z,12.30
2018-11-10T09:15:48.859Z,12.30
2018-11-10T09:19:53.096Z,12.40
2018-11-10T09:23:57.309Z,12.10
2018-11-10T09:28:01.642Z,11.70
2018-11-10T09:32:06.287Z,11.80
2018-11-10T09:36:10.467Z,11.80
2018-11-10T09:40:16.024Z,12.10
2018-11-10T09:44:20.247Z,12.10
2018-11-10T09:48:24.640Z,12.10
2018-11-10T09:52:28.874Z,12.00
2018-11-10T09:56:33.116Z,12.00
2018-11-10T10:00:37.538Z,12.20
2018-11-10T10:04:41.766Z,12.30
2018-11-10T10:08:46.183Z,12.30
2018-11-10T10:12:50.778Z,12.40
2018-11-10T10:16:54.983Z,12.30
2018-11-10T10:20:59.281Z,12.30
2018-11-10T10:25:03.516Z,12.20
2018-11-10T10:29:08.034Z,12.10
2018-11-10T10:33:12.598Z,12.00
2018-11-10T10:37:16.830Z,12.00
2018-11-10T10:41:22.341Z,11.70
2018-11-10T10:45:26.673Z,11.60
2018-11-10T10:49:30.875Z,11.60
2018-11-10T10:53:35.168Z,11.80
2018-11-10T10:57:39.393Z,11.60
2018-11-10T11:01:48.892Z,11.80
2018-11-10T11:06:00.883Z,12.00
2018-11-10T11:10:06.264Z,12.00
2018-11-10T11:14:10.532Z,11.90
2018-11-10T11:18:14.813Z,12.00
2018-11-10T11:22:19.539Z,12.20
2018-11-10T11:26:24.582Z,12.30
2018-11-10T11:30:28.861Z,12.70
2018-11-10T11:34:33.189Z,12.60
2018-11-10T11:38:37.416Z,13.20
2018-11-10T11:42:42.204Z,13.40
2018-11-10T11:46:46.958Z,13.30
2018-11-10T11:50:51.179Z,13.30
2018-11-10T11:54:55.430Z,13.40
2018-11-10T11:58:59.727Z,13.20
2018-11-10T12:03:04.375Z,12.90
2018-11-10T12:07:08.793Z,12.80
2018-11-10T12:11:13.020Z,12.40
2018-11-10T12:15:17.575Z,12.20
2018-11-10T12:19:21.865Z,12.30
2018-11-10T12:23:26.295Z,12.50
2018-11-10T12:27:30.550Z,12.70
2018-11-10T12:31:35.229Z,12.90
2018-11-10T12:35:39.463Z,13.00
2018-11-10T12:39:43.828Z,13.20
2018-11-10T12:43:48.023Z,13.30
2018-11-10T12:47:52.221Z,13.30
2018-11-10T12:51:56.499Z,13.60
2018-11-10T12:56:00.794Z,13.30
2018-11-10T13:00:05.496Z,13.60
2018-11-10T13:04:09.748Z,13.90
2018-11-10T13:08:14.071Z,13.90
2018-11-10T13:12:18.322Z,13.80
2018-11-10T13:16:22.627Z,14.20
2018-11-10T13:20:28.672Z,14.20
2018-11-10T13:24:33.424Z,14.30
2018-11-10T13:28:38.374Z,14.30
2018-11-10T13:32:43.254Z,14.50
2018-11-10T13:36:48.362Z,14.30
2018-11-10T13:40:52.975Z,14.20
2018-11-10T13:44:58.534Z,13.70
2018-11-10T13:49:03.335Z,12.90
2018-11-10T13:53:08.426Z,12.70
2018-11-10T13:57:12.757Z,12.70
2018-11-10T14:01:17.522Z,12.80
2018-11-10T14:05:22.264Z,12.70
2018-11-10T14:09:28.220Z,12.60
2018-11-10T14:13:33.096Z,12.30
2018-11-10T14:17:37.926Z,12.20
2018-11-10T14:21:42.644Z,12.10
2018-11-10T14:25:47.171Z,12.00
2018-11-10T14:29:51.591Z,11.80
2018-11-10T14:33:55.864Z,11.40
2018-11-10T14:38:00.179Z,11.10
2018-11-10T14:42:04.773Z,10.90
2018-11-10T14:46:09.885Z,10.70
2018-11-10T14:50:16.627Z,10.50
2018-11-10T14:54:21.765Z,10.30
2018-11-10T14:58:26.621Z,10.20
2018-11-10T15:02:31.593Z,10.10
2018-11-10T15:06:36.531Z,9.90
2018-11-10T15:10:41.850Z,9.80
2018-11-10T15:14:47.168Z,9.70
2018-11-10T15:18:52.952Z,9.60
2018-11-10T15:22:58.968Z,9.40
2018-11-10T15:27:03.761Z,9.20
2018-11-10T15:31:08.915Z,9.00
2018-11-10T15:35:18.039Z,8.90
2018-11-10T15:39:23.126Z,8.80
2018-11-10T15:43:30.688Z,8.60
2018-11-10T15:47:35.962Z,8.50
2018-11-10T15:51:40.590Z,8.30
2018-11-10T15:55:45.753Z,8.20
2018-11-10T15:59:51.275Z,8.10
2018-11-10T16:03:56.071Z,8.00
2018-11-10T16:08:03.288Z,7.90
2018-11-10T16:12:09.196Z,7.80
2018-11-10T16:16:14.273Z,7.70
2018-11-10T16:20:20.568Z,7.60
2018-11-10T16:24:25.641Z,7.50
2018-11-10T16:28:31.149Z,7.40
2018-11-10T16:32:36.931Z,7.30
2018-11-10T16:36:41.530Z,7.20
2018-11-10T16:40:50.995Z,7.20
2018-11-10T16:44:56.494Z,7.10
2018-11-10T16:49:01.079Z,7.10
2018-11-10T16:53:06.126Z,7.10
2018-11-10T16:57:11.417Z,7.00
2018-11-10T17:01:16.391Z,7.00
2018-11-10T17:05:21.168Z,6.90
2018-11-10T17:09:27.502Z,6.80
2018-11-10T17:13:32.552Z,6.80
2018-11-10T17:17:39.956Z,6.70
2018-11-10T17:21:45.670Z,6.60
2018-11-10T17:25:50.160Z,6.60
2018-11-10T17:29:55.132Z,6.60
2018-11-10T17:33:59.878Z,6.50
2018-11-10T17:38:05.593Z,6.50
2018-11-10T17:42:11.608Z,6.30
2018-11-10T17:46:16.018Z,6.40
2018-11-10T17:50:20.474Z,6.30
2018-11-10T17:54:25.863Z,6.30
2018-11-10T17:58:30.812Z,6.20
2018-11-10T18:02:35.386Z,6.10
2018-11-10T18:06:40.501Z,6.10
2018-11-10T18:10:45.096Z,6.10
2018-11-10T18:14:49.777Z,6.10
2018-11-10T18:18:55.182Z,6.00
2018-11-10T18:23:00.653Z,5.90
2018-11-10T18:27:05.274Z,5.90
2018-11-10T18:31:09.941Z,5.80
2018-11-10T18:35:15.129Z,5.70
2018-11-10T18:39:20.241Z,5.70
2018-11-10T18:43:25.743Z,5.70
2018-11-10T18:47:30.194Z,5.60
2018-11-10T18:51:35.375Z,5.60
2018-11-10T18:55:41.474Z,5.50
2018-11-10T18:59:51.142Z,5.50
2018-11-10T19:03:56.229Z,5.40
2018-11-10T19:08:01.550Z,5.30
2018-11-10T19:12:06.839Z,5.30
2018-11-10T19:16:12.439Z,5.20
2018-11-10T19:20:19.461Z,5.20
2018-11-10T19:24:24.907Z,5.20
2018-11-10T19:28:30.491Z,5.20
2018-11-10T19:32:35.012Z,5.20
2018-11-10T19:36:39.676Z,5.10
2018-11-10T19:40:45.121Z,5.00
2018-11-10T19:44:49.860Z,5.00
2018-11-10T19:48:56.268Z,5.00
2018-11-10T19:53:02.931Z,4.90
2018-11-10T19:57:12.006Z,4.90
2018-11-10T20:01:20.724Z,4.90
2018-11-10T20:05:33.202Z,4.80
2018-11-10T20:09:42.829Z,4.80
2018-11-10T20:13:54.915Z,4.80
2018-11-10T20:18:03.213Z,4.70
2018-11-10T20:22:14.021Z,4.70
2018-11-10T20:26:36.963Z,4.70
2018-11-10T20:30:49.020Z,4.70
2018-11-10T20:35:05.668Z,4.60
2018-11-10T20:39:16.429Z,4.50
2018-11-10T20:43:21.091Z,4.50
2018-11-10T20:47:26.158Z,4.50
2018-11-10T20:51:31.600Z,4.40
2018-11-10T20:55:39.663Z,4.40
2018-11-10T20:59:49.757Z,4.30
2018-11-10T21:03:57.243Z,4.30
2018-11-10T21:08:04.753Z,4.30
2018-11-10T21:12:09.852Z,4.20
2018-11-10T21:16:14.294Z,4.20
2018-11-10T21:20:19.462Z,4.10
2018-11-10T21:24:24.132Z,4.20
2018-11-10T21:28:28.858Z,4.20
2018-11-10T21:32:33.576Z,4.10
2018-11-10T21:36:38.205Z,4.10
2018-11-10T21:40:43.426Z,4.10
2018-11-10T21:44:49.465Z,4.10
2018-11-10T21:48:54.068Z,4.10
2018-11-10T21:52:58.263Z,4.00
2018-11-10T21:57:02.580Z,4.00
2018-11-10T22:01:06.845Z,3.90
2018-11-10T22:05:11.514Z,3.90
2018-11-10T22:09:15.884Z,3.90
2018-11-10T22:13:19.956Z,3.80
2018-11-10T22:17:24.440Z,3.90
2018-11-10T22:21:28.751Z,3.80
2018-11-10T22:25:32.986Z,3.80
2018-11-10T22:29:37.270Z,3.80
2018-11-10T22:33:41.473Z,3.70
2018-11-10T22:37:45.688Z,3.70
2018-11-10T22:41:51.078Z,3.70
2018-11-10T22:45:55.279Z,3.70
2018-11-10T22:49:59.512Z,3.70
2018-11-10T22:54:03.813Z,3.60
2018-11-10T22:58:08.000Z,3.60
2018-11-10T23:02:12.285Z,3.60
2018-11-10T23:06:16.490Z,3.60
2018-11-10T23:10:21.005Z,3.50
2018-11-10T23:14:25.298Z,3.60
2018-11-10T23:18:29.497Z,3.50
2018-11-10T23:22:33.837Z,3.50
2018-11-10T23:26:38.021Z,3.50
2018-11-10T23:30:42.229Z,3.50
2018-11-10T23:34:46.685Z,3.50
2018-11-10T23:38:50.937Z,3.50
2018-11-10T23:42:55.250Z,3.50
2018-11-10T23:46:59.441Z,3.40
2018-11-10T23:51:03.667Z,3.40
2018-11-10T23:55:08.986Z,3.30
2018-11-10T23:59:13.168Z,3.30
